createdAt,value
2022-12-24T00:00:16.576Z,35.05
2022-12-24T00:02:44.709Z,41.08
2022-12-24T00:05:13.856Z,44.65
2022-12-24T00:07:43.951Z,50.47
2022-12-24T00:10:16.588Z,56.55
2022-12-24T00:12:49.203Z,56.95
2022-12-24T00:15:19.066Z,52.75
2022-12-24T00:17:50.117Z,62.25
2022-12-24T00:20:22.121Z,59.38
2022-12-24T00:23:01.904Z,59.78
2022-12-24T00:25:31.131Z,63.38
2022-12-24T00:28:00.715Z,55.20
2022-12-24T00:30:35.406Z,57.28
2022-12-24T00:33:07.326Z,57.83
2022-12-24T00:35:43.007Z,55.22
2022-12-24T00:38:16.296Z,61.10
2022-12-24T00:40:44.495Z,55.97
2022-12-24T00:43:16.126Z,44.00
2022-12-24T00:45:44.595Z,50.00
2022-12-24T00:48:16.696Z,52.70
2022-12-24T00:50:44.531Z,47.88
2022-12-24T00:53:14.892Z,47.50
2022-12-24T00:55:46.496Z,45.22
2022-12-24T00:58:14.726Z,49.15
2022-12-24T01:00:47.295Z,50.13
2022-12-24T01:03:21.396Z,50.60
2022-12-24T01:05:51.697Z,50.33
2022-12-24T01:08:22.516Z,49.83
2022-12-24T01:10:54.197Z,49.30
2022-12-24T01:13:26.671Z,45.65
2022-12-24T01:15:54.924Z,52.72
2022-12-24T01:18:27.363Z,54.90
2022-12-24T01:21:10.041Z,54.08
2022-12-24T01:23:43.955Z,55.25
2022-12-24T01:26:15.734Z,50.53
2022-12-24T01:28:44.942Z,56.38
2022-12-24T01:31:20.807Z,51.08
2022-12-24T01:33:49.491Z,55.40
2022-12-24T01:36:17.959Z,50.13
2022-12-24T01:38:50.855Z,64.05
2022-12-24T01:41:40.010Z,55.17
2022-12-24T01:44:36.914Z,46.97
2022-12-24T01:47:34.336Z,57.58
2022-12-24T01:50:15.545Z,53.38
2022-12-24T01:52:48.864Z,56.22
2022-12-24T01:55:18.165Z,55.03
2022-12-24T01:58:03.510Z,58.78
2022-12-24T02:00:35.645Z,63.75
2022-12-24T02:03:07.500Z,66.00
2022-12-24T02:05:49.190Z,62.97
2022-12-24T02:08:22.783Z,58.03
2022-12-24T02:10:54.790Z,48.97
2022-12-24T02:13:27.023Z,57.08
2022-12-24T02:16:17.955Z,56.33
2022-12-24T02:19:07.653Z,55.35
2022-12-24T02:22:25.920Z,55.35
2022-12-24T02:25:05.662Z,53.92
2022-12-24T02:27:55.840Z,51.80
2022-12-24T02:31:06.260Z,53.42
2022-12-24T02:33:40.143Z,54.03
2022-12-24T02:36:51.007Z,52.55
2022-12-24T02:39:31.184Z,50.90
2022-12-24T02:42:06.910Z,48.40
2022-12-24T02:44:59.685Z,54.72
2022-12-24T02:47:34.294Z,46.00
2022-12-24T02:50:09.926Z,51.00
2022-12-24T02:52:42.155Z,50.25
2022-12-24T02:55:33.379Z,49.67
2022-12-24T02:58:34.663Z,51.42
2022-12-24T03:01:30.276Z,48.35
2022-12-24T03:04:44.969Z,46.67
2022-12-24T03:07:42.183Z,55.08
2022-12-24T03:13:45.053Z,52.13
2022-12-24T03:16:19.159Z,54.88
2022-12-24T03:19:04.350Z,53.47
2022-12-24T03:21:38.892Z,51.00
2022-12-24T03:24:13.131Z,50.88
2022-12-24T03:26:45.024Z,50.75
2022-12-24T03:29:17.396Z,47.63
2022-12-24T03:31:49.729Z,51.03
2022-12-24T03:34:19.666Z,49.92
2022-12-24T03:36:52.123Z,46.00
2022-12-24T03:39:20.013Z,46.42
2022-12-24T03:41:50.476Z,45.63
2022-12-24T03:44:18.985Z,46.63
2022-12-24T03:46:50.211Z,46.90
2022-12-24T03:49:20.064Z,43.40
2022-12-24T03:51:49.812Z,47.35
2022-12-24T03:54:23.379Z,49.60
2022-12-24T03:57:14.061Z,49.55
2022-12-24T03:59:47.267Z,45.53
2022-12-24T04:02:20.741Z,46.38
2022-12-24T04:04:52.701Z,48.80
2022-12-24T04:07:24.305Z,50.15
2022-12-24T04:15:24.194Z,46.33
2022-12-24T04:17:52.563Z,36.57
2022-12-24T04:20:27.906Z,49.05
2022-12-24T04:22:59.134Z,52.40
2022-12-24T04:25:30.134Z,48.53
2022-12-24T04:28:00.096Z,51.38
2022-12-24T04:30:30.961Z,50.08
2022-12-24T04:33:03.325Z,49.17
2022-12-24T04:35:33.653Z,42.15
2022-12-24T04:38:04.323Z,46.85
2022-12-24T04:40:35.105Z,49.00
2022-12-24T04:43:10.413Z,48.75
2022-12-24T04:48:23.558Z,43.53
2022-12-24T04:50:56.683Z,42.97
2022-12-24T04:53:28.378Z,29.58
2022-12-24T04:56:04.880Z,36.03
2022-12-24T04:58:33.440Z,36.45
2022-12-24T05:01:08.945Z,28.40
2022-12-24T05:03:37.399Z,19.45
2022-12-24T05:06:19.461Z,22.60
2022-12-24T05:08:50.042Z,16.70
2022-12-24T05:11:20.282Z,14.55
2022-12-24T05:13:51.573Z,23.83
2022-12-24T05:16:22.605Z,28.50
2022-12-24T05:18:52.596Z,43.08
2022-12-24T05:21:23.929Z,42.17
2022-12-24T05:24:24.974Z,41.47
2022-12-24T05:26:59.397Z,42.90
2022-12-24T05:29:35.649Z,38.40
2022-12-24T05:32:05.580Z,34.75
2022-12-24T05:34:32.984Z,27.05
2022-12-24T05:37:04.023Z,26.88
2022-12-24T05:39:31.973Z,26.55
2022-12-24T05:42:07.254Z,15.25
2022-12-24T05:44:36.065Z,19.85
2022-12-24T05:47:06.408Z,21.23
2022-12-24T05:49:36.293Z,28.13
2022-12-24T05:52:05.203Z,24.58
2022-12-24T05:54:36.393Z,26.48
2022-12-24T05:57:07.016Z,47.35
2022-12-24T05:59:39.733Z,31.83
2022-12-24T06:02:10.383Z,24.88
2022-12-24T06:04:41.711Z,30.73
2022-12-24T06:07:13.074Z,27.73
2022-12-24T06:09:42.981Z,31.98
2022-12-24T06:12:12.299Z,36.80
2022-12-24T06:14:42.223Z,34.17
2022-12-24T06:17:12.082Z,29.00
2022-12-24T06:19:42.710Z,31.60
2022-12-24T06:22:12.155Z,32.78
2022-12-24T06:24:47.983Z,22.73
2022-12-24T06:27:21.935Z,29.92
2022-12-24T06:29:53.016Z,26.10
2022-12-24T06:32:22.618Z,23.67
2022-12-24T06:34:52.830Z,24.23
2022-12-24T06:37:21.794Z,23.92
2022-12-24T06:39:59.671Z,20.95
2022-12-24T06:42:30.147Z,23.27
2022-12-24T06:45:03.931Z,19.67
2022-12-24T06:47:41.372Z,23.67
2022-12-24T06:50:13.459Z,21.73
2022-12-24T06:52:40.877Z,23.20
2022-12-24T06:55:12.768Z,25.13
2022-12-24T06:57:44.004Z,20.08
2022-12-24T07:00:14.464Z,26.13
2022-12-24T07:02:44.203Z,29.50
2022-12-24T07:05:15.600Z,29.95
2022-12-24T07:07:48.099Z,38.67
2022-12-24T07:10:25.761Z,36.75
2022-12-24T07:13:00.648Z,40.30
2022-12-24T07:15:32.279Z,34.60
2022-12-24T07:18:06.433Z,36.67
2022-12-24T07:20:38.484Z,44.30
2022-12-24T07:23:07.083Z,36.63
2022-12-24T07:25:38.817Z,41.45
2022-12-24T07:28:09.654Z,33.75
2022-12-24T07:30:44.872Z,35.97
2022-12-24T07:33:13.673Z,37.47
2022-12-24T07:35:44.726Z,41.28
2022-12-24T07:38:16.452Z,31.30
2022-12-24T07:40:45.308Z,31.25
2022-12-24T07:43:18.794Z,35.60
2022-12-24T07:45:51.024Z,26.13
2022-12-24T07:48:21.547Z,37.03
2022-12-24T07:50:53.560Z,31.88
2022-12-24T07:53:24.571Z,29.98
2022-12-24T07:55:56.093Z,37.67
2022-12-24T07:58:28.385Z,30.40
2022-12-24T08:01:01.939Z,39.17
2022-12-24T08:03:35.974Z,38.13
2022-12-24T08:06:09.066Z,35.67
2022-12-24T08:08:40.704Z,36.38
2022-12-24T08:11:12.548Z,35.45
2022-12-24T08:13:43.906Z,37.92
2022-12-24T08:16:15.376Z,40.90
2022-12-24T08:18:43.989Z,52.55
2022-12-24T08:21:13.046Z,45.78
2022-12-24T08:23:44.807Z,47.97
2022-12-24T08:26:13.328Z,41.95
2022-12-24T08:31:26.515Z,54.53
2022-12-24T08:34:01.352Z,52.35
2022-12-24T08:36:38.952Z,42.67
2022-12-24T08:39:13.198Z,40.25
2022-12-24T08:41:48.216Z,44.65
2022-12-24T08:44:18.327Z,48.83
2022-12-24T08:46:51.856Z,50.80
2022-12-24T08:49:23.678Z,43.85
2022-12-24T08:51:53.351Z,43.55
2022-12-24T08:54:23.775Z,41.85
2022-12-24T08:56:56.447Z,47.83
2022-12-24T09:02:10.150Z,44.85
2022-12-24T09:04:43.591Z,49.40
2022-12-24T09:07:12.293Z,35.20
2022-12-24T09:09:48.013Z,35.00
2022-12-24T09:12:18.323Z,34.75
2022-12-24T09:14:47.363Z,31.50
2022-12-24T09:17:18.470Z,42.60
2022-12-24T09:19:48.981Z,37.97
2022-12-24T09:22:19.936Z,42.30
2022-12-24T09:24:49.315Z,36.58
2022-12-24T09:27:20.892Z,38.78
2022-12-24T09:29:50.603Z,38.13
2022-12-24T09:32:20.604Z,36.97
2022-12-24T09:34:49.740Z,38.40
2022-12-24T09:37:27.746Z,32.53
2022-12-24T09:39:55.097Z,32.25
2022-12-24T09:42:51.612Z,36.90
2022-12-24T09:45:44.640Z,35.83
2022-12-24T09:48:24.475Z,36.08
2022-12-24T09:50:54.734Z,35.40
2022-12-24T09:53:30.681Z,35.78
2022-12-24T09:56:07.264Z,36.15
2022-12-24T09:58:48.171Z,42.45
2022-12-24T10:01:20.837Z,40.28
2022-12-24T10:03:51.898Z,37.17
2022-12-24T10:06:55.950Z,34.65
2022-12-24T10:09:41.630Z,30.98
2022-12-24T10:12:25.197Z,31.58
2022-12-24T10:15:30.689Z,35.25
2022-12-24T10:18:23.799Z,25.35
2022-12-24T10:21:27.843Z,24.80
2022-12-24T10:24:35.347Z,26.83
2022-12-24T10:27:17.832Z,22.35
2022-12-24T10:29:54.614Z,20.38
2022-12-24T10:32:32.601Z,20.98
2022-12-24T10:35:22.989Z,21.02
2022-12-24T10:37:55.269Z,20.10
2022-12-24T10:40:50.190Z,21.85
2022-12-24T10:43:25.795Z,25.08
2022-12-24T10:46:01.163Z,22.83
2022-12-24T10:48:50.945Z,23.63
2022-12-24T10:51:55.140Z,25.63
2022-12-24T10:54:29.093Z,25.05
2022-12-24T10:57:00.506Z,25.25
2022-12-24T10:59:40.601Z,20.80
2022-12-24T11:02:39.323Z,24.65
2022-12-24T11:08:20.399Z,27.75
2022-12-24T11:11:01.510Z,30.15
2022-12-24T11:14:01.991Z,26.90
2022-12-24T11:16:56.738Z,27.13
2022-12-24T11:19:51.643Z,22.17
2022-12-24T11:22:45.695Z,25.02
2022-12-24T11:25:34.488Z,42.10
2022-12-24T11:28:35.139Z,38.72
2022-12-24T11:31:25.151Z,37.38
2022-12-24T11:34:01.669Z,38.70
2022-12-24T11:36:32.913Z,37.17
2022-12-24T11:39:03.815Z,28.67
2022-12-24T11:41:47.485Z,29.83
2022-12-24T11:44:19.056Z,24.40
2022-12-24T11:46:52.649Z,25.35
2022-12-24T11:49:37.191Z,24.55
2022-12-24T11:52:25.352Z,22.30
2022-12-24T11:55:17.922Z,22.48
2022-12-24T11:58:29.009Z,22.45
2022-12-24T12:01:10.211Z,29.55
2022-12-24T12:03:59.613Z,22.30
2022-12-24T12:06:47.141Z,25.30
2022-12-24T12:09:47.779Z,20.42
2022-12-24T12:12:28.091Z,25.25
2022-12-24T12:15:07.612Z,23.70
2022-12-24T12:18:06.202Z,24.05
2022-12-24T12:21:05.425Z,19.98
2022-12-24T12:24:12.923Z,22.90
2022-12-24T12:26:46.486Z,22.63
2022-12-24T12:29:38.738Z,22.65
2022-12-24T12:32:44.079Z,23.77
2022-12-24T12:35:32.900Z,29.73
2022-12-24T12:38:25.752Z,20.48
2022-12-24T12:41:22.293Z,23.63
2022-12-24T12:44:32.127Z,23.08
2022-12-24T12:47:37.358Z,20.95
2022-12-24T12:50:28.806Z,27.50
2022-12-24T12:53:20.412Z,23.35
2022-12-24T12:56:09.099Z,22.88
2022-12-24T12:58:55.947Z,29.08
2022-12-24T13:01:32.814Z,23.55
2022-12-24T13:04:38.724Z,26.88
2022-12-24T13:07:40.524Z,30.20
2022-12-24T13:10:38.234Z,26.08
2022-12-24T13:13:45.148Z,27.33
2022-12-24T13:16:51.038Z,24.08
2022-12-24T13:19:38.415Z,27.85
2022-12-24T13:22:22.932Z,26.58
2022-12-24T13:25:05.573Z,27.02
2022-12-24T13:27:39.038Z,32.40
2022-12-24T13:30:39.201Z,24.65
2022-12-24T13:33:11.822Z,30.50
2022-12-24T13:36:04.660Z,34.72
2022-12-24T13:39:00.137Z,30.17
2022-12-24T13:41:42.172Z,31.80
2022-12-24T13:44:28.081Z,31.98
2022-12-24T13:47:30.142Z,42.75
2022-12-24T13:50:22.479Z,41.53
2022-12-24T13:52:57.891Z,31.85
2022-12-24T13:55:29.039Z,36.35
2022-12-24T13:58:07.984Z,35.15
2022-12-24T14:01:08.019Z,37.28
2022-12-24T14:03:56.340Z,36.13
2022-12-24T14:06:40.623Z,40.13
2022-12-24T14:09:32.291Z,33.47
2022-12-24T14:12:16.580Z,38.28
2022-12-24T14:14:48.262Z,36.58
2022-12-24T14:17:24.905Z,41.03
2022-12-24T14:19:59.817Z,39.92
2022-12-24T14:22:51.959Z,46.85
2022-12-24T14:25:23.655Z,44.83
2022-12-24T14:28:05.566Z,43.80
2022-12-24T14:30:36.284Z,42.78
2022-12-24T14:33:07.601Z,38.08
2022-12-24T14:35:40.257Z,42.72
2022-12-24T14:38:35.897Z,47.78
2022-12-24T14:41:41.776Z,46.28
2022-12-24T14:44:49.146Z,47.63
2022-12-24T14:47:53.732Z,48.97
2022-12-24T14:50:53.293Z,48.72
2022-12-24T14:53:52.948Z,50.97
2022-12-24T14:56:25.348Z,51.00
2022-12-24T14:58:56.163Z,55.03
2022-12-24T15:01:25.186Z,55.38
2022-12-24T15:04:20.689Z,60.03
2022-12-24T15:07:01.364Z,43.53
2022-12-24T15:09:34.997Z,50.75
2022-12-24T15:12:05.313Z,45.85
2022-12-24T15:14:43.649Z,55.20
2022-12-24T15:17:16.416Z,54.28
2022-12-24T15:19:51.291Z,53.30
2022-12-24T15:22:32.547Z,57.15
2022-12-24T15:25:04.591Z,56.70
2022-12-24T15:27:46.795Z,53.15
2022-12-24T15:30:31.673Z,52.42
2022-12-24T15:33:01.380Z,47.13
2022-12-24T15:35:56.439Z,46.88
2022-12-24T15:38:47.649Z,48.38
2022-12-24T15:41:30.180Z,53.13
2022-12-24T15:44:11.899Z,50.10
2022-12-24T15:46:41.559Z,51.75
2022-12-24T15:49:17.599Z,53.72
2022-12-24T15:51:45.533Z,50.05
2022-12-24T15:54:20.499Z,52.67
2022-12-24T15:56:52.109Z,51.85
2022-12-24T15:59:38.719Z,50.90
2022-12-24T16:02:47.251Z,50.72
2022-12-24T16:05:35.298Z,53.00
2022-12-24T16:08:35.105Z,49.33
2022-12-24T16:11:32.952Z,45.92
2022-12-24T16:14:20.995Z,51.10
2022-12-24T16:17:03.177Z,47.17
2022-12-24T16:19:39.802Z,50.45
2022-12-24T16:22:29.889Z,51.67
2022-12-24T16:25:01.100Z,50.38
2022-12-24T16:27:35.125Z,48.15
2022-12-24T16:30:06.610Z,50.65
2022-12-24T16:32:51.506Z,53.40
2022-12-24T16:38:23.259Z,59.63
2022-12-24T16:40:54.077Z,57.65
2022-12-24T16:43:42.870Z,58.10
2022-12-24T16:46:17.547Z,58.45
2022-12-24T16:48:50.936Z,64.63
2022-12-24T16:51:25.483Z,59.17
2022-12-24T16:56:28.443Z,58.60
2022-12-24T16:58:57.061Z,56.55
2022-12-24T17:01:28.237Z,54.58
2022-12-24T17:03:55.654Z,57.28
2022-12-24T17:06:27.147Z,59.08
2022-12-24T17:08:59.821Z,52.67
2022-12-24T17:11:31.370Z,56.87
2022-12-24T17:14:08.166Z,57.08
2022-12-24T17:16:44.256Z,63.20
2022-12-24T17:19:15.912Z,46.73
2022-12-24T17:21:43.086Z,56.60
2022-12-24T17:24:16.710Z,59.00
2022-12-24T17:26:46.838Z,60.53
2022-12-24T17:29:19.881Z,64.72
2022-12-24T17:31:54.299Z,64.35
2022-12-24T17:36:56.295Z,76.97
2022-12-24T17:39:28.172Z,68.43
2022-12-24T17:42:00.868Z,70.35
2022-12-24T17:44:35.396Z,70.45
2022-12-24T17:47:06.539Z,64.70
2022-12-24T17:49:37.463Z,63.70
2022-12-24T17:52:10.136Z,63.97
2022-12-24T17:54:41.471Z,65.40
2022-12-24T17:57:13.176Z,65.88
2022-12-24T17:59:43.771Z,65.85
2022-12-24T18:02:13.720Z,63.28
2022-12-24T18:04:44.071Z,59.85
2022-12-24T18:07:14.319Z,63.30
2022-12-24T18:09:51.311Z,57.58
2022-12-24T18:12:19.867Z,60.97
2022-12-24T18:14:51.251Z,61.67
2022-12-24T18:17:20.203Z,60.72
2022-12-24T18:19:49.645Z,59.38
2022-12-24T18:22:19.689Z,57.47
2022-12-24T18:24:53.152Z,55.75
2022-12-24T18:27:24.647Z,57.20
2022-12-24T18:29:55.511Z,54.45
2022-12-24T18:32:29.389Z,61.38
2022-12-24T18:35:00.195Z,57.53
2022-12-24T18:37:32.191Z,61.40
2022-12-24T18:40:04.306Z,64.93
2022-12-24T18:42:35.213Z,57.30
2022-12-24T18:45:05.250Z,56.60
2022-12-24T18:47:35.265Z,58.50
2022-12-24T18:50:06.041Z,60.38
2022-12-24T18:52:34.330Z,61.00
2022-12-24T18:55:04.245Z,59.95
2022-12-24T18:57:32.409Z,57.97
2022-12-24T19:00:01.614Z,54.97
2022-12-24T19:02:33.009Z,54.95
2022-12-24T19:05:03.097Z,54.08
2022-12-24T19:07:34.157Z,50.25
2022-12-24T19:10:01.815Z,60.70
2022-12-24T19:12:34.068Z,57.75
2022-12-24T19:15:04.282Z,59.53
2022-12-24T19:17:34.708Z,57.35
2022-12-24T19:20:06.552Z,55.83
2022-12-24T19:22:39.113Z,53.78
2022-12-24T19:25:09.666Z,53.05
2022-12-24T19:27:39.243Z,52.03
2022-12-24T19:30:11.463Z,48.00
2022-12-24T19:32:43.170Z,37.57
2022-12-24T19:35:16.204Z,49.17
2022-12-24T19:37:43.771Z,43.85
2022-12-24T19:40:13.513Z,47.08
2022-12-24T19:42:43.256Z,47.97
2022-12-24T19:45:14.608Z,48.55
2022-12-24T19:47:44.145Z,46.50
2022-12-24T19:50:17.985Z,50.38
2022-12-24T19:52:48.784Z,46.47
2022-12-24T19:55:21.768Z,48.80
2022-12-24T19:57:54.543Z,46.55
2022-12-24T20:00:22.647Z,48.70
2022-12-24T20:02:54.529Z,46.90
2022-12-24T20:05:23.980Z,49.75
2022-12-24T20:07:56.637Z,50.55
2022-12-24T20:10:28.004Z,45.58
2022-12-24T20:12:59.635Z,44.58
2022-12-24T20:15:32.184Z,47.05
2022-12-24T20:18:02.099Z,43.20
2022-12-24T20:23:20.220Z,41.17
2022-12-24T20:25:58.381Z,37.38
2022-12-24T20:28:46.530Z,37.42
2022-12-24T20:31:30.818Z,44.63
2022-12-24T20:34:06.156Z,37.42
2022-12-24T20:36:40.014Z,36.13
2022-12-24T20:39:09.052Z,40.00
2022-12-24T20:41:41.591Z,38.45
2022-12-24T20:44:13.143Z,36.83
2022-12-24T20:46:43.273Z,35.33
2022-12-24T20:49:13.680Z,38.42
2022-12-24T20:51:48.838Z,38.13
2022-12-24T20:54:23.549Z,34.70
2022-12-24T20:56:57.635Z,33.15
2022-12-24T20:59:33.152Z,33.42
2022-12-24T21:02:03.423Z,35.55
2022-12-24T21:04:35.307Z,38.35
2022-12-24T21:07:03.833Z,37.97
2022-12-24T21:09:35.324Z,37.90
2022-12-24T21:12:34.998Z,37.00
2022-12-24T21:15:03.258Z,39.28
2022-12-24T21:17:45.274Z,40.50
2022-12-24T21:20:16.579Z,37.45
2022-12-24T21:22:49.307Z,42.05
2022-12-24T21:25:21.893Z,38.63
2022-12-24T21:27:54.271Z,37.58
2022-12-24T21:30:24.830Z,34.63
2022-12-24T21:32:58.068Z,34.78
2022-12-24T21:35:28.136Z,31.38
2022-12-24T21:38:02.423Z,40.40
2022-12-24T21:40:32.394Z,38.67
2022-12-24T21:43:04.830Z,38.78
2022-12-24T21:45:35.262Z,35.05
2022-12-24T21:48:24.660Z,36.03
2022-12-24T21:50:55.501Z,43.63
2022-12-24T21:53:43.164Z,35.85
2022-12-24T21:56:14.179Z,36.92
2022-12-24T21:58:42.192Z,42.58
2022-12-24T22:01:14.548Z,46.83
2022-12-24T22:03:44.777Z,39.33
2022-12-24T22:06:36.198Z,47.20
2022-12-24T22:09:25.910Z,45.97
2022-12-24T22:11:57.812Z,41.25
2022-12-24T22:14:28.225Z,39.13
2022-12-24T22:16:58.793Z,41.88
2022-12-24T22:19:32.059Z,39.55
2022-12-24T22:22:02.627Z,39.25
2022-12-24T22:24:33.670Z,45.33
2022-12-24T22:27:07.009Z,40.03
2022-12-24T22:29:38.347Z,42.08
2022-12-24T22:32:06.062Z,44.60
2022-12-24T22:34:36.185Z,42.47
2022-12-24T22:37:04.353Z,43.10
2022-12-24T22:39:34.192Z,41.85
2022-12-24T22:42:06.547Z,43.50
2022-12-24T22:44:36.265Z,42.65
2022-12-24T22:47:07.273Z,46.08
2022-12-24T22:49:37.490Z,45.90
2022-12-24T22:52:10.521Z,42.15
2022-12-24T22:54:40.922Z,45.33
2022-12-24T22:57:15.233Z,44.33
2022-12-24T22:59:46.236Z,39.38
2022-12-24T23:02:22.127Z,43.97
2022-12-24T23:04:59.319Z,43.88
2022-12-24T23:07:29.577Z,46.97
2022-12-24T23:09:59.817Z,51.35
2022-12-24T23:12:49.601Z,54.05
2022-12-24T23:15:17.227Z,51.25
2022-12-24T23:17:52.396Z,56.45
2022-12-24T23:20:23.359Z,58.08
2022-12-24T23:25:34.517Z,61.38
2022-12-24T23:28:03.627Z,54.00
2022-12-24T23:30:34.849Z,52.88
2022-12-24T23:33:04.061Z,49.72
2022-12-24T23:35:34.771Z,49.83
2022-12-24T23:38:07.023Z,52.85
2022-12-24T23:40:38.187Z,48.28
2022-12-24T23:43:09.410Z,53.78
2022-12-24T23:45:41.507Z,53.25
2022-12-24T23:48:15.901Z,58.33
2022-12-24T23:50:45.741Z,55.55
2022-12-24T23:53:20.449Z,48.78
2022-12-24T23:55:47.866Z,48.85
2022-12-24T23:58:19.268Z,48.42
